OMAD/AZI METAR and TAF weather

Enter ICAO airport designator
Station Type Date Time Source
OMAD METAR 2020/09/26 12:00 UTC NOAA

OMAD 261200Z 34010KT CAVOK 36/25 Q1002 NOSIG


Station Type Date Time Source
OMAD Decoded METAR 2020/09/26 12:00 UTC NOAA

Abu Dhabi Bateen Airport, United Arab Emirates (OMAD) 24-26N 054-28E 3M
Sep 26, 2020 - 08:00 AM EDT / 2020.09.26 1200 UTC
Wind: from the NNW (340 degrees) at 12 MPH (10 KT):0
Visibility: greater than 7 mile(s):0
Temperature: 96 F (36 C)
Heat index: 109.9 F (43.3 C):1
Dew Point: 77 F (25 C)
Relative Humidity: 53%
Pressure (altimeter): 29.59 in. Hg (1002 hPa)
ob: OMAD 261200Z 34010KT CAVOK 36/25 Q1002 NOSIG
cycle: 12

Station Type Date Time Source
OMAD TAF 2020/09/26 12:06 UTC NOAA

TAF TAF OMAD 261100Z 2612/2718 33010KT CAVOK
BECMG 2617/2619 06005KT PROB30 2623/2704 4000 HZ
BECMG 2703/2705 14006KT
BECMG 2708/2710 32010KT

Example: see airport list